Terminal Aerodrome Forecast
Issued by NWS Louisville, KY

Home | Current Version | Previous Version | Text Only | Print | Product List | Glossary On
Versions: 1 2 3 4 5 6 7 8 9 10 11 12 13 14 15 16 17
642
FTUS43 KLMK 271733
TAFBWG
TAF
KBWG 271733Z 2718/2818 18009KT P6SM SCT040 BKN100
     FM271900 19011KT P6SM VCTS SCT040CB BKN100
      TEMPO 2720/2724 VRB06G25KT 4SM TS OVC040CB
     FM280100 19008KT P6SM VCSH SCT040 BKN090
     FM280630 20005KT P6SM BKN025
     FM281000 26006KT P6SM BKN015=

USA.gov is the U.S. government's official web portal to all federal, state and local government web resources and services.